createdAt,value
2019-02-22T00:00:03.875Z,1028.8
2019-02-22T00:01:03.384Z,1028.8
2019-02-22T00:02:03.982Z,1028.8
2019-02-22T00:03:03.245Z,1028.8
2019-02-22T00:04:03.411Z,1028.8
2019-02-22T00:05:03.779Z,1028.8
2019-02-22T00:06:03.431Z,1028.8
2019-02-22T00:07:03.104Z,1028.9
2019-02-22T00:08:03.425Z,1028.7
2019-02-22T00:09:03.166Z,1028.7
2019-02-22T00:10:03.283Z,1028.7
2019-02-22T00:11:03.874Z,1028.7
2019-02-22T00:12:03.935Z,1028.6
2019-02-22T00:13:03.857Z,1028.7
2019-02-22T00:14:03.422Z,1028.7
2019-02-22T00:15:03.689Z,1028.6
2019-02-22T00:16:03.074Z,1028.8
2019-02-22T00:17:03.547Z,1028.8
2019-02-22T00:18:03.053Z,1028.7
2019-02-22T00:19:03.411Z,1028.8
2019-02-22T00:20:03.085Z,1028.8
2019-02-22T00:21:03.455Z,1028.8
2019-02-22T00:22:03.074Z,1028.8
2019-02-22T00:23:04.066Z,1028.7
2019-02-22T00:24:03.069Z,1028.7
2019-02-22T00:25:03.816Z,1028.7
2019-02-22T00:26:03.236Z,1028.7
2019-02-22T00:27:03.765Z,1028.7
2019-02-22T00:28:03.264Z,1028.7
2019-02-22T00:29:03.783Z,1028.6
2019-02-22T00:30:03.419Z,1028.7
2019-02-22T00:31:03.416Z,1028.6
2019-02-22T00:32:03.102Z,1028.7
2019-02-22T00:33:03.400Z,1028.6
2019-02-22T00:34:03.949Z,1028.6
2019-02-22T00:35:03.703Z,1028.7
2019-02-22T00:36:03.548Z,1028.6
2019-02-22T00:37:04.695Z,1028.5
2019-02-22T00:38:03.507Z,1028.5
2019-02-22T00:39:03.040Z,1028.5
2019-02-22T00:40:03.476Z,1028.7
2019-02-22T00:41:03.963Z,1028.6
2019-02-22T00:42:03.263Z,1028.6
2019-02-22T00:43:02.983Z,1028.6
2019-02-22T00:44:03.694Z,1028.6
2019-02-22T00:45:03.216Z,1028.4
2019-02-22T00:46:03.416Z,1028.4
2019-02-22T00:47:03.200Z,1028.5
2019-02-22T00:48:03.540Z,1028.4
2019-02-22T00:49:03.832Z,1028.5
2019-02-22T00:50:03.305Z,1028.5
2019-02-22T00:51:04.100Z,1028.5
2019-02-22T00:52:03.420Z,1028.5
2019-02-22T00:53:03.899Z,1028.5
2019-02-22T00:54:03.416Z,1028.5
2019-02-22T00:55:03.902Z,1028.5
2019-02-22T00:56:03.382Z,1028.4
2019-02-22T00:57:03.166Z,1028.5
2019-02-22T00:58:03.772Z,1028.4
2019-02-22T00:59:03.185Z,1028.4
2019-02-22T01:00:04.509Z,1028.4
2019-02-22T01:01:03.450Z,1028.4
2019-02-22T01:02:03.144Z,1028.4
2019-02-22T01:03:03.495Z,1028.4
2019-02-22T01:04:02.912Z,1028.5
2019-02-22T01:05:03.892Z,1028.4
2019-02-22T01:06:03.013Z,1028.3
2019-02-22T01:07:03.599Z,1028.3
2019-02-22T01:08:03.459Z,1028.3
2019-02-22T01:09:03.469Z,1028.4
2019-02-22T01:10:03.188Z,1028.3
2019-02-22T01:11:03.662Z,1028.3
2019-02-22T01:12:03.241Z,1028.3
2019-02-22T01:13:03.521Z,1028.3
2019-02-22T01:14:02.976Z,1028.3
2019-02-22T01:15:03.092Z,1028.3
2019-02-22T01:16:02.931Z,1028.2
2019-02-22T01:17:03.179Z,1028.3
2019-02-22T01:18:03.885Z,1028.4
2019-02-22T01:19:03.213Z,1028.3
2019-02-22T01:20:03.990Z,1028.3
2019-02-22T01:21:03.291Z,1028.3
2019-02-22T01:22:03.577Z,1028.3
2019-02-22T01:23:03.508Z,1028.4
2019-02-22T01:24:03.337Z,1028.2
2019-02-22T01:25:03.647Z,1028.3
2019-02-22T01:26:03.290Z,1028.3
2019-02-22T01:27:03.823Z,1028.3
2019-02-22T01:28:03.353Z,1028.3
2019-02-22T01:29:03.691Z,1028.3
2019-02-22T01:30:03.562Z,1028.3
2019-02-22T01:31:03.610Z,1028.3
2019-02-22T01:32:03.494Z,1028.3
2019-02-22T01:33:03.972Z,1028.4
2019-02-22T01:34:03.569Z,1028.3
2019-02-22T01:35:03.292Z,1028.1
2019-02-22T01:36:03.722Z,1028.3
2019-02-22T01:37:03.104Z,1028.2
2019-02-22T01:38:03.466Z,1028.2
2019-02-22T01:39:03.670Z,1028.2
2019-02-22T01:40:03.883Z,1028.2
2019-02-22T01:41:02.956Z,1028.2
2019-02-22T01:42:03.676Z,1028.2
2019-02-22T01:43:03.639Z,1028.3
2019-02-22T01:44:03.510Z,1028.2
2019-02-22T01:45:03.802Z,1028.2
2019-02-22T01:46:03.359Z,1028.1
2019-02-22T01:47:03.712Z,1028.2
2019-02-22T01:48:03.586Z,1028.1
2019-02-22T01:49:03.904Z,1028.1
2019-02-22T01:50:03.419Z,1028.2
2019-02-22T01:51:03.243Z,1028
2019-02-22T01:52:03.398Z,1028.1
2019-02-22T01:53:03.635Z,1028.1
2019-02-22T01:54:02.811Z,1028.1
2019-02-22T01:55:03.541Z,1028.1
2019-02-22T01:56:04.045Z,1028.1
2019-02-22T01:57:03.361Z,1028.1
2019-02-22T01:58:03.254Z,1028.1
2019-02-22T01:59:03.637Z,1028.1
2019-02-22T02:00:03.321Z,1028.2
2019-02-22T02:01:04.107Z,1028.1
2019-02-22T02:02:03.455Z,1028.1
2019-02-22T02:03:03.740Z,1028.1
2019-02-22T02:04:03.085Z,1028.2
2019-02-22T02:05:03.540Z,1028.1
2019-02-22T02:06:03.578Z,1028.1
2019-02-22T02:07:02.827Z,1028.1
2019-02-22T02:08:03.354Z,1028.1
2019-02-22T02:09:02.939Z,1028.1
2019-02-22T02:10:03.311Z,1028.1
2019-02-22T02:11:02.828Z,1028.1
2019-02-22T02:12:03.122Z,1028.1
2019-02-22T02:13:03.490Z,1028
2019-02-22T02:14:03.192Z,1028.1
2019-02-22T02:15:03.606Z,1028.1
2019-02-22T02:16:03.876Z,1028
2019-02-22T02:17:03.660Z,1028.1
2019-02-22T02:18:03.244Z,1028
2019-02-22T02:19:02.967Z,1028
2019-02-22T02:20:03.475Z,1028
2019-02-22T02:21:03.764Z,1028.1
2019-02-22T02:22:03.092Z,1028.1
2019-02-22T02:23:03.844Z,1028
2019-02-22T02:24:03.339Z,1028.1
2019-02-22T02:25:03.713Z,1028.1
2019-02-22T02:26:03.133Z,1028
2019-02-22T02:27:03.284Z,1028
2019-02-22T02:28:03.635Z,1028
2019-02-22T02:29:03.386Z,1028
2019-02-22T02:30:03.962Z,1028
2019-02-22T02:31:03.512Z,1028
2019-02-22T02:32:02.983Z,1028.1
2019-02-22T02:33:03.329Z,1028.1
2019-02-22T02:34:03.127Z,1028.1
2019-02-22T02:35:03.411Z,1028
2019-02-22T02:36:03.778Z,1028.1
2019-02-22T02:37:03.164Z,1028.1
2019-02-22T02:38:03.969Z,1028.1
2019-02-22T02:39:03.130Z,1028.1
2019-02-22T02:40:04.463Z,1028.1
2019-02-22T02:41:11.995Z,1028.1
2019-02-22T02:42:03.606Z,1028.1
2019-02-22T02:43:03.632Z,1028.1
2019-02-22T02:44:03.720Z,1028.1
2019-02-22T02:45:03.173Z,1028.1
2019-02-22T02:46:03.956Z,1028.1
2019-02-22T02:47:03.094Z,1028.2
2019-02-22T02:48:03.285Z,1028.1
2019-02-22T02:49:03.840Z,1028.1
2019-02-22T02:50:03.763Z,1028.1
2019-02-22T02:51:02.865Z,1028.2
2019-02-22T02:52:03.471Z,1028.1
2019-02-22T02:53:04.100Z,1028.1
2019-02-22T02:54:03.141Z,1028.2
2019-02-22T02:55:03.807Z,1028.1
2019-02-22T02:56:03.354Z,1028.1
2019-02-22T02:57:03.986Z,1028.1
2019-02-22T02:58:03.561Z,1028.1
2019-02-22T02:59:03.822Z,1028.2
2019-02-22T03:00:03.466Z,1028.1
2019-02-22T03:01:04.021Z,1028.1
2019-02-22T03:02:03.022Z,1028.1
2019-02-22T03:03:03.426Z,1028.2
2019-02-22T03:04:03.039Z,1028.1
2019-02-22T03:05:03.772Z,1028.1
2019-02-22T03:06:03.454Z,1028.1
2019-02-22T03:07:03.948Z,1028.1
2019-02-22T03:08:03.286Z,1028.1
2019-02-22T03:09:03.971Z,1028
2019-02-22T03:10:03.363Z,1028.1
2019-02-22T03:11:04.047Z,1028.1
2019-02-22T03:12:02.992Z,1028.1
2019-02-22T03:13:03.613Z,1028.1
2019-02-22T03:14:03.354Z,1028.1
2019-02-22T03:15:03.771Z,1028.1
2019-02-22T03:16:03.639Z,1028.1
2019-02-22T03:17:03.005Z,1028.1
2019-02-22T03:18:03.572Z,1028.1
2019-02-22T03:19:03.906Z,1028.1
2019-02-22T03:20:03.662Z,1028.2
2019-02-22T03:21:03.154Z,1028.1
2019-02-22T03:22:03.954Z,1028.1
2019-02-22T03:23:03.065Z,1028.2
2019-02-22T03:24:03.874Z,1028.1
2019-02-22T03:25:03.447Z,1028.2
2019-02-22T03:26:03.491Z,1028.1
2019-02-22T03:27:03.649Z,1028.2
2019-02-22T03:28:02.930Z,1028.2
2019-02-22T03:29:03.013Z,1028.2
2019-02-22T03:30:03.835Z,1028.3
2019-02-22T03:31:03.108Z,1028.3
2019-02-22T03:32:03.917Z,1028.3
2019-02-22T03:33:03.449Z,1028.4
2019-02-22T03:34:04.083Z,1028.3
2019-02-22T03:35:03.720Z,1028.3
2019-02-22T03:36:03.076Z,1028.3
2019-02-22T03:37:03.665Z,1028.2
2019-02-22T03:38:05.850Z,1028.4
2019-02-22T03:39:03.672Z,1028.4
2019-02-22T03:40:03.103Z,1028.3
2019-02-22T03:41:03.441Z,1028.2
2019-02-22T03:42:03.784Z,1028.3
2019-02-22T03:43:03.226Z,1028.4
2019-02-22T03:44:03.668Z,1028.4
2019-02-22T03:45:02.974Z,1028.4
2019-02-22T03:46:03.200Z,1028.3
2019-02-22T03:47:03.242Z,1028.4
2019-02-22T03:48:03.674Z,1028.3
2019-02-22T03:49:03.222Z,1028.3
2019-02-22T03:50:03.725Z,1028.4
2019-02-22T03:51:03.841Z,1028.3
2019-02-22T03:52:03.691Z,1028.3
2019-02-22T03:53:03.298Z,1028.3
2019-02-22T03:54:03.475Z,1028.4
2019-02-22T03:55:03.111Z,1028.3
2019-02-22T03:56:03.875Z,1028.3
2019-02-22T03:57:03.167Z,1028.1
2019-02-22T03:58:03.884Z,1028.1
2019-02-22T03:59:03.180Z,1028.2
2019-02-22T04:00:03.855Z,1028.2
2019-02-22T04:01:02.893Z,1028.3
2019-02-22T04:02:03.654Z,1028.2
2019-02-22T04:03:03.785Z,1028.4
2019-02-22T04:04:03.474Z,1028.2
2019-02-22T04:05:03.709Z,1028.3
2019-02-22T04:06:03.616Z,1028.3
2019-02-22T04:07:03.652Z,1028.3
2019-02-22T04:08:03.048Z,1028.3
2019-02-22T04:09:03.291Z,1028.3
2019-02-22T04:10:02.927Z,1028.4
2019-02-22T04:11:03.239Z,1028.2
2019-02-22T04:12:03.923Z,1028.3
2019-02-22T04:13:03.169Z,1028.3
2019-02-22T04:14:03.970Z,1028.3
2019-02-22T04:15:03.130Z,1028.3
2019-02-22T04:16:03.641Z,1028.3
2019-02-22T04:17:03.024Z,1028.3
2019-02-22T04:18:03.828Z,1028.3
2019-02-22T04:19:03.688Z,1028.2
2019-02-22T04:20:03.286Z,1028.4
2019-02-22T04:21:03.531Z,1028.3
2019-02-22T04:22:03.282Z,1028.4
2019-02-22T04:23:03.940Z,1028.5
2019-02-22T04:24:03.175Z,1028.4
2019-02-22T04:25:04.071Z,1028.4
2019-02-22T04:26:03.396Z,1028.5
2019-02-22T04:27:03.842Z,1028.5
2019-02-22T04:28:03.208Z,1028.4
2019-02-22T04:29:03.588Z,1028.4
2019-02-22T04:30:03.131Z,1028.4
2019-02-22T04:31:03.630Z,1028.5
2019-02-22T04:32:03.215Z,1028.4
2019-02-22T04:33:03.727Z,1028.4
2019-02-22T04:34:03.769Z,1028.5
2019-02-22T04:35:03.652Z,1028.4
2019-02-22T04:36:03.166Z,1028.5
2019-02-22T04:37:03.791Z,1028.5
2019-02-22T04:38:03.613Z,1028.5
2019-02-22T04:39:03.843Z,1028.5
2019-02-22T04:40:03.529Z,1028.6
2019-02-22T04:41:04.065Z,1028.6
2019-02-22T04:42:03.159Z,1028.6
2019-02-22T04:43:03.906Z,1028.6
2019-02-22T04:44:03.365Z,1028.6
2019-02-22T04:45:03.891Z,1028.6
2019-02-22T04:46:03.294Z,1028.5
2019-02-22T04:47:03.508Z,1028.6
2019-02-22T04:48:03.100Z,1028.6
2019-02-22T04:49:03.777Z,1028.7
2019-02-22T04:50:03.231Z,1028.6
2019-02-22T04:51:03.530Z,1028.6
2019-02-22T04:52:02.808Z,1028.6
2019-02-22T04:53:03.369Z,1028.6
2019-02-22T04:54:03.932Z,1028.6
2019-02-22T04:55:03.477Z,1028.6
2019-02-22T04:56:02.946Z,1028.6
2019-02-22T04:57:03.357Z,1028.6
2019-02-22T04:58:03.691Z,1028.7
2019-02-22T04:59:04.186Z,1028.6
2019-02-22T05:00:03.330Z,1028.5
2019-02-22T05:01:03.069Z,1028.6
2019-02-22T05:02:03.648Z,1028.6
2019-02-22T05:03:03.899Z,1028.6
2019-02-22T05:04:03.426Z,1028.5
2019-02-22T05:05:03.848Z,1028.5
2019-02-22T05:06:03.309Z,1028.6
2019-02-22T05:07:03.848Z,1028.6
2019-02-22T05:08:03.470Z,1028.6
2019-02-22T05:09:04.029Z,1028.7
2019-02-22T05:10:03.332Z,1028.8
2019-02-22T05:11:03.736Z,1028.8
2019-02-22T05:12:11.709Z,1028.8
2019-02-22T05:13:03.549Z,1028.8
2019-02-22T05:14:03.725Z,1028.9
2019-02-22T05:15:13.442Z,1028.8
2019-02-22T05:16:02.979Z,1028.9
2019-02-22T05:17:03.678Z,1028.9
2019-02-22T05:18:03.976Z,1028.9
2019-02-22T05:19:03.657Z,1028.9
2019-02-22T05:20:03.874Z,1028.9
2019-02-22T05:21:03.383Z,1028.9
2019-02-22T05:22:03.514Z,1028.9
2019-02-22T05:23:08.030Z,1028.9
2019-02-22T05:24:03.831Z,1028.9
2019-02-22T05:25:03.489Z,1028.9
2019-02-22T05:26:03.967Z,1029
2019-02-22T05:27:03.833Z,1028.9
2019-02-22T05:28:03.122Z,1029
2019-02-22T05:29:03.480Z,1029
2019-02-22T05:30:03.005Z,1028.9
2019-02-22T05:31:03.386Z,1029.1
2019-02-22T05:32:02.803Z,1029
2019-02-22T05:33:03.757Z,1029
2019-02-22T05:34:03.133Z,1029
2019-02-22T05:35:03.882Z,1029
2019-02-22T05:36:03.236Z,1029
2019-02-22T05:37:03.487Z,1029.1
2019-02-22T05:38:03.115Z,1029
2019-02-22T05:39:03.531Z,1029
2019-02-22T05:40:03.496Z,1029.1
2019-02-22T05:41:03.522Z,1029.1
2019-02-22T05:42:03.096Z,1029.1
2019-02-22T05:43:03.739Z,1029
2019-02-22T05:44:03.380Z,1029.1
2019-02-22T05:45:03.718Z,1029.1
2019-02-22T05:46:03.517Z,1029.1
2019-02-22T05:47:03.596Z,1029
2019-02-22T05:48:03.289Z,1029.1
2019-02-22T05:49:03.486Z,1029.2
2019-02-22T05:50:03.604Z,1029.2
2019-02-22T05:51:03.684Z,1029.2
2019-02-22T05:52:03.045Z,1029.2
2019-02-22T05:53:04.245Z,1029.3
2019-02-22T05:54:03.591Z,1029.3
2019-02-22T05:55:03.268Z,1029.3
2019-02-22T05:56:03.814Z,1029.3
2019-02-22T05:57:03.283Z,1029.2
2019-02-22T05:58:03.833Z,1029.3
2019-02-22T05:59:03.138Z,1029.2
2019-02-22T06:00:03.839Z,1029.3
2019-02-22T06:01:02.790Z,1029.3
2019-02-22T06:02:03.306Z,1029.2
2019-02-22T06:03:03.223Z,1029.2
2019-02-22T06:04:03.684Z,1029.3
2019-02-22T06:05:02.966Z,1029.2
2019-02-22T06:06:03.425Z,1029.3
2019-02-22T06:07:03.249Z,1029.2
2019-02-22T06:08:03.491Z,1029.2
2019-02-22T06:09:03.892Z,1029.3
2019-02-22T06:10:03.147Z,1029.4
2019-02-22T06:11:03.031Z,1029.3
2019-02-22T06:12:03.765Z,1029.3
2019-02-22T06:13:03.051Z,1029.4
2019-02-22T06:14:03.733Z,1029.4
2019-02-22T06:15:03.425Z,1029.3
2019-02-22T06:16:03.662Z,1029.3
2019-02-22T06:17:15.351Z,1029.5
2019-02-22T06:18:04.274Z,1029.4
2019-02-22T06:19:03.062Z,1029.4
2019-02-22T06:20:03.933Z,1029.4
2019-02-22T06:21:03.767Z,1029.4
2019-02-22T06:22:03.219Z,1029.4
2019-02-22T06:23:03.028Z,1029.4
2019-02-22T06:24:03.987Z,1029.5
2019-02-22T06:25:03.250Z,1029.5
2019-02-22T06:26:03.784Z,1029.5
2019-02-22T06:27:03.874Z,1029.6
2019-02-22T06:28:03.775Z,1029.6
2019-02-22T06:29:02.939Z,1029.6
2019-02-22T06:30:04.222Z,1029.6
2019-02-22T06:31:03.451Z,1029.6
2019-02-22T06:32:02.838Z,1029.5
2019-02-22T06:33:03.526Z,1029.6
2019-02-22T06:34:03.101Z,1029.7
2019-02-22T06:35:03.587Z,1029.7
2019-02-22T06:36:03.220Z,1029.7
2019-02-22T06:37:03.582Z,1029.7
2019-02-22T06:38:03.203Z,1029.8
2019-02-22T06:39:03.095Z,1029.7
2019-02-22T06:40:03.927Z,1029.7
2019-02-22T06:41:03.173Z,1029.8
2019-02-22T06:42:03.854Z,1029.8
2019-02-22T06:43:03.827Z,1029.9
2019-02-22T06:44:03.188Z,1029.8
2019-02-22T06:45:03.172Z,1029.8
2019-02-22T06:46:03.246Z,1029.8
2019-02-22T06:47:03.239Z,1029.8
2019-02-22T06:48:03.395Z,1029.8
2019-02-22T06:49:03.324Z,1029.9
2019-02-22T06:50:03.193Z,1029.8
2019-02-22T06:51:03.049Z,1029.9
2019-02-22T06:52:03.507Z,1029.9
2019-02-22T06:53:03.082Z,1029.9
2019-02-22T06:54:03.748Z,1029.8
2019-02-22T06:55:03.442Z,1029.9
2019-02-22T06:56:03.487Z,1029.8
2019-02-22T06:57:03.059Z,1029.9
2019-02-22T06:58:03.633Z,1029.9
2019-02-22T06:59:03.805Z,1030
2019-02-22T07:00:03.330Z,1030
2019-02-22T07:01:03.606Z,1030
2019-02-22T07:02:03.858Z,1030
2019-02-22T07:03:03.419Z,1030
2019-02-22T07:04:04.035Z,1029.9
2019-02-22T07:05:03.173Z,1030
2019-02-22T07:06:05.995Z,1030
2019-02-22T07:07:03.398Z,1030
2019-02-22T07:08:03.385Z,1030
2019-02-22T07:09:03.597Z,1030
2019-02-22T07:10:03.020Z,1030
2019-02-22T07:11:03.672Z,1030
2019-02-22T07:12:02.956Z,1030.1
2019-02-22T07:13:03.419Z,1030.1
2019-02-22T07:14:03.110Z,1030.1
2019-02-22T07:15:03.133Z,1030.1
2019-02-22T07:16:03.549Z,1030
2019-02-22T07:17:03.683Z,1030.1
2019-02-22T07:18:03.118Z,1030.1
2019-02-22T07:19:04.103Z,1030.1
2019-02-22T07:20:03.148Z,1030.1
2019-02-22T07:21:03.593Z,1030.2
2019-02-22T07:22:02.980Z,1030.2
2019-02-22T07:23:03.544Z,1030.3
2019-02-22T07:24:04.126Z,1030.2
2019-02-22T07:25:02.986Z,1030.2
2019-02-22T07:26:03.935Z,1030.2
2019-02-22T07:27:03.424Z,1030.2
2019-02-22T07:28:03.795Z,1030.2
2019-02-22T07:29:03.504Z,1030.2
2019-02-22T07:30:03.732Z,1030.3
2019-02-22T07:31:03.045Z,1030.3
2019-02-22T07:32:40.040Z,1030.3
2019-02-22T07:33:03.030Z,1030.4
2019-02-22T07:34:03.169Z,1030.3
2019-02-22T07:35:03.520Z,1030.4
2019-02-22T07:36:03.614Z,1030.4
2019-02-22T07:37:03.420Z,1030.4
2019-02-22T07:38:03.758Z,1030.4
2019-02-22T07:39:03.503Z,1030.4
2019-02-22T07:40:03.821Z,1030.5
2019-02-22T07:41:03.148Z,1030.5
2019-02-22T07:42:03.218Z,1030.5
2019-02-22T07:43:08.741Z,1030.5
2019-02-22T07:44:03.398Z,1030.4
2019-02-22T07:45:03.235Z,1030.6
2019-02-22T07:46:03.641Z,1030.5
2019-02-22T07:47:03.828Z,1030.5
2019-02-22T07:48:03.566Z,1030.4
2019-02-22T07:49:02.908Z,1030.5
2019-02-22T07:50:03.595Z,1030.5
2019-02-22T07:51:03.154Z,1030.5
2019-02-22T07:52:03.755Z,1030.6
2019-02-22T07:53:03.150Z,1030.6
2019-02-22T07:54:03.572Z,1030.6
2019-02-22T07:55:03.219Z,1030.6
2019-02-22T07:56:03.442Z,1030.6
2019-02-22T07:57:03.244Z,1030.4
2019-02-22T07:58:03.273Z,1030.6
2019-02-22T07:59:03.947Z,1030.6
2019-02-22T08:00:03.152Z,1030.6
2019-02-22T08:01:03.962Z,1030.5
2019-02-22T08:02:03.627Z,1030.5
2019-02-22T08:03:03.236Z,1030.5
2019-02-22T08:04:03.604Z,1030.5
2019-02-22T08:05:02.913Z,1030.5
2019-02-22T08:06:03.810Z,1030.5
2019-02-22T08:07:03.141Z,1030.5
2019-02-22T08:08:03.704Z,1030.5
2019-02-22T08:09:03.415Z,1030.6
2019-02-22T08:10:03.748Z,1030.6
2019-02-22T08:11:03.286Z,1030.6
2019-02-22T08:12:03.864Z,1030.7
2019-02-22T08:13:02.761Z,1030.7
2019-02-22T08:14:03.510Z,1030.7
2019-02-22T08:15:03.941Z,1030.6
2019-02-22T08:16:03.295Z,1030.7
2019-02-22T08:17:03.882Z,1030.7
2019-02-22T08:18:03.678Z,1030.7
2019-02-22T08:19:03.550Z,1030.6
2019-02-22T08:20:03.829Z,1030.7
2019-02-22T08:21:03.512Z,1030.7
2019-02-22T08:22:04.028Z,1030.6
2019-02-22T08:23:03.171Z,1030.6
2019-02-22T08:24:03.990Z,1030.7
2019-02-22T08:25:03.080Z,1030.7
2019-02-22T08:26:03.570Z,1030.6
2019-02-22T08:27:03.841Z,1030.5
2019-02-22T08:28:03.819Z,1030.7
2019-02-22T08:29:03.632Z,1030.8
2019-02-22T08:30:03.919Z,1030.8
2019-02-22T08:31:03.297Z,1030.8
2019-02-22T08:32:04.042Z,1030.6
2019-02-22T08:33:03.469Z,1030.6
2019-02-22T08:34:03.565Z,1030.5
2019-02-22T08:35:03.303Z,1030.5
2019-02-22T08:36:03.348Z,1030.6
2019-02-22T08:37:03.665Z,1030.7
2019-02-22T08:38:03.146Z,1030.7
2019-02-22T08:39:03.733Z,1030.6
2019-02-22T08:40:03.255Z,1030.6
2019-02-22T08:41:03.876Z,1030.6
2019-02-22T08:42:03.395Z,1030.6
2019-02-22T08:43:03.900Z,1030.6
2019-02-22T08:44:03.444Z,1030.7
2019-02-22T08:45:03.480Z,1030.6
2019-02-22T08:46:03.915Z,1030.6
2019-02-22T08:47:03.804Z,1030.6
2019-02-22T08:48:03.206Z,1030.6
2019-02-22T08:49:03.276Z,1030.7
2019-02-22T08:50:03.400Z,1030.7
2019-02-22T08:51:03.490Z,1030.6
2019-02-22T08:52:03.448Z,1030.6
2019-02-22T08:53:04.044Z,1030.7
2019-02-22T08:54:03.785Z,1030.7
2019-02-22T08:55:03.911Z,1030.9
2019-02-22T08:56:03.591Z,1030.9
2019-02-22T08:57:03.870Z,1030.9
2019-02-22T08:58:03.485Z,1030.9
2019-02-22T08:59:03.153Z,1030.9
2019-02-22T09:00:03.920Z,1031
2019-02-22T09:01:03.123Z,1030.9
2019-02-22T09:02:03.701Z,1030.9
2019-02-22T09:03:03.217Z,1031
2019-02-22T09:04:03.516Z,1030.9
2019-02-22T09:05:03.092Z,1030.9
2019-02-22T09:06:03.277Z,1030.9
2019-02-22T09:07:03.778Z,1030.9
2019-02-22T09:08:03.140Z,1030.9
2019-02-22T09:09:03.478Z,1030.9
2019-02-22T09:10:03.704Z,1030.9
2019-02-22T09:11:03.393Z,1031
2019-02-22T09:12:03.814Z,1031
2019-02-22T09:13:03.172Z,1031.1
2019-02-22T09:14:03.679Z,1031
2019-02-22T09:15:03.434Z,1031
2019-02-22T09:16:03.826Z,1031
2019-02-22T09:17:03.347Z,1031.1
2019-02-22T09:18:03.330Z,1031.1
2019-02-22T09:19:03.742Z,1031.1
2019-02-22T09:20:03.172Z,1031.1
2019-02-22T09:21:03.331Z,1031.1
2019-02-22T09:22:03.793Z,1031.1
2019-02-22T09:23:03.209Z,1031.1
2019-02-22T09:24:03.927Z,1031.2
2019-02-22T09:25:03.840Z,1031.2
2019-02-22T09:26:03.821Z,1031.1
2019-02-22T09:27:03.611Z,1031.2
2019-02-22T09:28:03.673Z,1031.2
2019-02-22T09:29:03.557Z,1031.3
2019-02-22T09:30:03.026Z,1031.1
2019-02-22T09:31:03.377Z,1031.2
2019-02-22T09:32:03.957Z,1031.2
2019-02-22T09:33:03.385Z,1031.2
2019-02-22T09:34:03.494Z,1031.2
2019-02-22T09:35:03.257Z,1031.2
2019-02-22T09:36:03.689Z,1031.3
2019-02-22T09:37:03.804Z,1031.2
2019-02-22T09:38:03.815Z,1031.3
2019-02-22T09:39:02.989Z,1031.3
2019-02-22T09:40:03.408Z,1031.3
2019-02-22T09:41:03.298Z,1031.3
2019-02-22T09:42:03.543Z,1031.3
2019-02-22T09:43:03.463Z,1031.3
2019-02-22T09:44:03.585Z,1031.3
2019-02-22T09:45:03.375Z,1031.5
2019-02-22T09:46:03.624Z,1031.5
2019-02-22T09:47:02.874Z,1031.6
2019-02-22T09:48:03.279Z,1031.4
2019-02-22T09:49:03.016Z,1031.4
2019-02-22T09:50:03.938Z,1031.5
2019-02-22T09:51:03.943Z,1031.6
2019-02-22T09:52:03.032Z,1031.5
2019-02-22T09:53:03.731Z,1031.6
2019-02-22T09:54:03.199Z,1031.5
2019-02-22T09:55:03.982Z,1031.5
2019-02-22T09:56:03.376Z,1031.5
2019-02-22T09:57:02.938Z,1031.5
2019-02-22T09:58:03.599Z,1031.4
2019-02-22T09:59:03.350Z,1031.5
2019-02-22T10:00:03.733Z,1031.4
2019-02-22T10:01:03.031Z,1031.4
2019-02-22T10:02:03.569Z,1031.5
2019-02-22T10:03:03.504Z,1031.4
2019-02-22T10:04:03.497Z,1031.4
2019-02-22T10:05:03.399Z,1031.5
2019-02-22T10:06:03.318Z,1031.5
2019-02-22T10:07:03.853Z,1031.5
2019-02-22T10:08:03.295Z,1031.5
2019-02-22T10:09:04.414Z,1031.5
2019-02-22T10:10:03.455Z,1031.5
2019-02-22T10:11:03.543Z,1031.5
2019-02-22T10:12:03.396Z,1031.6
2019-02-22T10:13:03.613Z,1031.6
2019-02-22T10:14:07.483Z,1031.6
2019-02-22T10:15:03.734Z,1031.5
2019-02-22T10:16:03.325Z,1031.6
2019-02-22T10:17:04.479Z,1031.5
2019-02-22T10:18:02.720Z,1031.8
2019-02-22T10:19:03.390Z,1031.7
2019-02-22T10:20:04.003Z,1031.7
2019-02-22T10:21:03.728Z,1031.7
2019-02-22T10:22:03.764Z,1031.7
2019-02-22T10:23:03.340Z,1031.8
2019-02-22T10:24:03.578Z,1031.7
2019-02-22T10:25:03.253Z,1031.7
2019-02-22T10:26:03.476Z,1031.7
2019-02-22T10:27:03.968Z,1031.9
2019-02-22T10:28:03.579Z,1031.9
2019-02-22T10:29:03.952Z,1031.9
2019-02-22T10:30:03.457Z,1031.8
2019-02-22T10:31:03.028Z,1031.8
2019-02-22T10:32:03.268Z,1031.7
2019-02-22T10:33:03.759Z,1031.9
2019-02-22T10:34:03.159Z,1031.7
2019-02-22T10:35:03.687Z,1031.7
2019-02-22T10:36:03.653Z,1031.9
2019-02-22T10:37:03.252Z,1031.9
2019-02-22T10:38:03.975Z,1031.7
2019-02-22T10:39:03.384Z,1031.7
2019-02-22T10:40:03.438Z,1031.8
2019-02-22T10:41:03.444Z,1031.7
2019-02-22T10:42:03.657Z,1031.8
2019-02-22T10:43:03.280Z,1031.8
2019-02-22T10:44:03.760Z,1031.8
2019-02-22T10:45:02.953Z,1031.8
2019-02-22T10:46:03.723Z,1031.8
2019-02-22T10:47:03.180Z,1031.8
2019-02-22T10:48:03.786Z,1031.8
2019-02-22T10:49:03.479Z,1031.8
2019-02-22T10:50:02.949Z,1031.9
2019-02-22T10:51:03.179Z,1031.8
2019-02-22T10:52:03.089Z,1031.8
2019-02-22T10:53:03.609Z,1031.9
2019-02-22T10:54:02.950Z,1031.9
2019-02-22T10:55:03.963Z,1031.9
2019-02-22T10:56:03.546Z,1031.9
2019-02-22T10:57:03.442Z,1031.8
2019-02-22T10:58:03.742Z,1031.9
2019-02-22T10:59:03.322Z,1031.8
2019-02-22T11:00:03.986Z,1031.9
2019-02-22T11:01:03.364Z,1031.9
2019-02-22T11:02:03.540Z,1032
2019-02-22T11:03:03.079Z,1031.9
2019-02-22T11:04:03.431Z,1031.9
2019-02-22T11:05:04.167Z,1031.9
2019-02-22T11:06:03.503Z,1032
2019-02-22T11:07:03.883Z,1031.9
2019-02-22T11:08:03.349Z,1031.8
2019-02-22T11:09:04.066Z,1031.9
2019-02-22T11:10:03.358Z,1031.8
2019-02-22T11:11:03.911Z,1031.9
2019-02-22T11:12:03.611Z,1031.8
2019-02-22T11:13:03.225Z,1031.8
2019-02-22T11:14:03.616Z,1031.9
2019-02-22T11:15:03.408Z,1031.8
2019-02-22T11:16:05.898Z,1031.9
2019-02-22T11:17:03.525Z,1031.9
2019-02-22T11:18:03.957Z,1031.9
2019-02-22T11:19:03.090Z,1031.9
2019-02-22T11:20:04.104Z,1032
2019-02-22T11:21:02.908Z,1031.9
2019-02-22T11:22:03.652Z,1031.8
2019-02-22T11:23:04.038Z,1031.9
2019-02-22T11:24:03.295Z,1031.9
2019-02-22T11:25:03.793Z,1032
2019-02-22T11:26:03.217Z,1031.8
2019-02-22T11:27:03.744Z,1032
2019-02-22T11:28:03.429Z,1031.9
2019-02-22T11:29:03.811Z,1031.8
2019-02-22T11:30:03.319Z,1031.9
2019-02-22T11:31:03.493Z,1032
2019-02-22T11:32:03.202Z,1031.9
2019-02-22T11:33:02.949Z,1032
2019-02-22T11:34:03.300Z,1031.9
2019-02-22T11:35:03.960Z,1031.9
2019-02-22T11:36:04.040Z,1031.9
2019-02-22T11:37:03.578Z,1032
2019-02-22T11:38:03.700Z,1032
2019-02-22T11:39:03.766Z,1032.1
2019-02-22T11:40:03.599Z,1032
2019-02-22T11:41:03.105Z,1032
2019-02-22T11:42:03.675Z,1032
2019-02-22T11:43:03.298Z,1032
2019-02-22T11:44:03.555Z,1032
2019-02-22T11:45:03.185Z,1032.1
2019-02-22T11:46:03.876Z,1032
2019-02-22T11:47:03.193Z,1032.1
2019-02-22T11:48:09.969Z,1032
2019-02-22T11:49:03.204Z,1032.1
2019-02-22T11:50:03.082Z,1032
2019-02-22T11:51:03.550Z,1032
2019-02-22T11:52:03.987Z,1032
2019-02-22T11:53:03.643Z,1032
2019-02-22T11:54:03.790Z,1032
2019-02-22T11:55:03.429Z,1032
2019-02-22T11:56:03.795Z,1032
2019-02-22T11:57:03.390Z,1032
2019-02-22T11:58:02.989Z,1032.1
2019-02-22T11:59:03.565Z,1032
2019-02-22T12:00:03.749Z,1032.1
2019-02-22T12:01:03.147Z,1032
2019-02-22T12:02:04.034Z,1032.1
2019-02-22T12:03:25.572Z,1032.1
2019-02-22T12:04:03.585Z,1032.2
2019-02-22T12:05:04.109Z,1032.2
2019-02-22T12:06:03.792Z,1032.1
2019-02-22T12:07:03.191Z,1032.1
2019-02-22T12:08:04.005Z,1032.2
2019-02-22T12:09:03.389Z,1032.3
2019-02-22T12:10:03.496Z,1032.2
2019-02-22T12:11:03.844Z,1032.2
2019-02-22T12:12:03.736Z,1032.1
2019-02-22T12:13:03.259Z,1032.2
2019-02-22T12:14:03.789Z,1032.1
2019-02-22T12:15:03.038Z,1032.2
2019-02-22T12:16:03.734Z,1032.2
2019-02-22T12:17:03.197Z,1032.2
2019-02-22T12:18:03.567Z,1032.2
2019-02-22T12:19:02.772Z,1032.2
2019-02-22T12:20:03.432Z,1032.2
2019-02-22T12:21:02.956Z,1032.2
2019-02-22T12:22:03.389Z,1032.2
2019-02-22T12:23:03.258Z,1032.2
2019-02-22T12:24:03.274Z,1032.1
2019-02-22T12:25:03.785Z,1032.1
2019-02-22T12:26:03.620Z,1032.2
2019-02-22T12:27:03.248Z,1032.3
2019-02-22T12:28:03.945Z,1032.2
2019-02-22T12:29:03.782Z,1032.2
2019-02-22T12:30:03.270Z,1032.2
2019-02-22T12:31:03.888Z,1032.2
2019-02-22T12:32:03.427Z,1032.1
2019-02-22T12:33:03.787Z,1032.1